createdAt,value
2023-02-19T00:01:31.284Z,17.92
2023-02-19T00:03:59.122Z,18.90
2023-02-19T00:06:26.536Z,19.50
2023-02-19T00:08:53.091Z,17.23
2023-02-19T00:11:21.366Z,22.17
2023-02-19T00:13:48.892Z,16.92
2023-02-19T00:16:16.539Z,16.10
2023-02-19T00:18:43.529Z,18.92
2023-02-19T00:21:10.540Z,20.05
2023-02-19T00:23:37.060Z,18.30
2023-02-19T00:26:18.451Z,22.40
2023-02-19T00:28:46.091Z,22.70
2023-02-19T00:31:15.534Z,34.03
2023-02-19T00:33:42.015Z,25.17
2023-02-19T00:36:08.416Z,23.77
2023-02-19T00:38:38.367Z,22.77
2023-02-19T00:41:19.002Z,18.55
2023-02-19T00:43:48.248Z,18.90
2023-02-19T00:46:15.284Z,18.38
2023-02-19T00:48:41.693Z,18.07
2023-02-19T00:51:08.292Z,20.88
2023-02-19T00:53:34.885Z,33.08
2023-02-19T00:56:01.225Z,20.75
2023-02-19T00:58:27.956Z,23.10
2023-02-19T01:00:54.402Z,18.13
2023-02-19T01:03:22.586Z,20.35
2023-02-19T01:05:49.780Z,18.13
2023-02-19T01:08:16.239Z,17.90
2023-02-19T01:10:42.609Z,11.38
2023-02-19T01:13:09.008Z,17.80
2023-02-19T01:15:35.744Z,15.27
2023-02-19T01:18:02.213Z,12.60
2023-02-19T01:20:28.929Z,14.00
2023-02-19T01:22:55.563Z,13.23
2023-02-19T01:25:21.971Z,15.63
2023-02-19T01:27:48.364Z,10.52
2023-02-19T01:30:14.845Z,11.77
2023-02-19T01:32:41.236Z,13.63
2023-02-19T01:35:07.759Z,13.30
2023-02-19T01:37:34.156Z,11.13
2023-02-19T01:40:00.524Z,12.13
2023-02-19T01:42:26.924Z,13.45
2023-02-19T01:45:19.199Z,16.80
2023-02-19T01:47:46.635Z,13.40
2023-02-19T01:50:13.041Z,12.07
2023-02-19T01:52:39.513Z,12.90
2023-02-19T01:55:08.677Z,14.18
2023-02-19T02:00:11.883Z,17.05
2023-02-19T02:02:39.206Z,14.80
2023-02-19T02:05:08.931Z,14.10
2023-02-19T02:07:53.940Z,11.35
2023-02-19T02:10:20.354Z,10.63
2023-02-19T02:12:47.528Z,10.20
2023-02-19T02:15:15.045Z,13.05
2023-02-19T02:17:49.196Z,8.93
2023-02-19T02:20:34.398Z,11.07
2023-02-19T02:23:06.876Z,15.02
2023-02-19T02:25:52.100Z,16.98
2023-02-19T02:28:28.329Z,13.13
2023-02-19T02:30:59.240Z,11.98
2023-02-19T02:33:25.609Z,16.02
2023-02-19T02:35:54.213Z,14.60
2023-02-19T02:38:22.801Z,11.48
2023-02-19T02:40:49.430Z,17.88
2023-02-19T02:43:15.835Z,15.13
2023-02-19T02:45:42.376Z,12.45
2023-02-19T02:48:18.000Z,11.18
2023-02-19T02:50:48.213Z,8.30
2023-02-19T02:56:36.701Z,12.88
2023-02-19T02:59:05.285Z,14.57
2023-02-19T03:01:52.501Z,10.20
2023-02-19T03:04:25.676Z,15.20
2023-02-19T03:06:52.561Z,12.50
2023-02-19T03:09:40.626Z,11.27
2023-02-19T03:12:28.728Z,12.45
2023-02-19T03:15:16.033Z,16.52
2023-02-19T03:18:07.491Z,12.32
2023-02-19T03:20:35.491Z,11.98
2023-02-19T03:25:49.431Z,12.48
2023-02-19T03:28:17.629Z,16.05
2023-02-19T03:30:45.990Z,12.90
2023-02-19T03:33:15.375Z,15.90
2023-02-19T03:35:42.855Z,12.85
2023-02-19T03:38:12.186Z,17.83
2023-02-19T03:40:44.243Z,13.27
2023-02-19T03:43:18.311Z,16.27
2023-02-19T03:45:53.773Z,13.52
2023-02-19T03:48:23.340Z,11.00
2023-02-19T03:51:05.439Z,14.82
2023-02-19T03:53:39.721Z,13.85
2023-02-19T03:56:08.944Z,14.05
2023-02-19T03:58:40.171Z,14.25
2023-02-19T04:01:09.206Z,13.32
2023-02-19T04:03:43.811Z,14.10
2023-02-19T04:06:13.198Z,14.05
2023-02-19T04:08:40.831Z,12.10
2023-02-19T04:11:08.387Z,13.30
2023-02-19T04:13:55.505Z,13.07
2023-02-19T04:16:24.474Z,15.98
2023-02-19T04:18:52.496Z,12.63
2023-02-19T04:23:45.711Z,16.25
2023-02-19T04:26:13.213Z,16.73
2023-02-19T04:28:40.188Z,16.85
2023-02-19T04:31:06.695Z,20.13
2023-02-19T04:33:33.057Z,17.33
2023-02-19T04:35:59.444Z,17.73
2023-02-19T04:38:25.845Z,22.10
2023-02-19T04:40:52.361Z,18.63
2023-02-19T04:43:18.870Z,20.35
2023-02-19T04:45:45.344Z,16.00
2023-02-19T04:48:11.759Z,28.20
2023-02-19T04:50:41.129Z,19.67
2023-02-19T04:53:07.501Z,15.90
2023-02-19T04:55:37.978Z,23.60
2023-02-19T04:58:04.608Z,19.25
2023-02-19T05:00:31.178Z,18.52
2023-02-19T05:02:57.535Z,13.93
2023-02-19T05:05:23.922Z,15.48
2023-02-19T05:07:50.305Z,17.17
2023-02-19T05:10:16.701Z,15.77
2023-02-19T05:12:43.191Z,15.77
2023-02-19T05:15:09.588Z,14.82
2023-02-19T05:17:36.026Z,13.88
2023-02-19T05:20:02.456Z,12.85
2023-02-19T05:22:29.837Z,15.75
2023-02-19T05:24:56.223Z,13.50
2023-02-19T05:27:22.613Z,16.30
2023-02-19T05:29:48.968Z,15.38
2023-02-19T05:32:15.439Z,14.35
2023-02-19T05:34:41.880Z,14.32
2023-02-19T05:37:08.262Z,16.05
2023-02-19T05:39:34.630Z,13.88
2023-02-19T05:42:01.022Z,15.02
2023-02-19T05:44:27.434Z,20.90
2023-02-19T05:46:53.794Z,15.27
2023-02-19T05:49:20.196Z,18.88
2023-02-19T05:51:46.641Z,15.27
2023-02-19T05:54:13.009Z,16.88
2023-02-19T05:56:40.350Z,13.25
2023-02-19T05:59:20.350Z,20.63
2023-02-19T06:01:47.695Z,18.55
2023-02-19T06:04:14.622Z,14.35
2023-02-19T06:06:41.519Z,12.75
2023-02-19T06:09:08.682Z,13.32
2023-02-19T06:11:35.324Z,11.70
2023-02-19T06:14:01.711Z,17.58
2023-02-19T06:16:28.454Z,10.63
2023-02-19T06:18:54.984Z,15.60
2023-02-19T06:21:21.419Z,15.13
2023-02-19T06:23:47.812Z,14.13
2023-02-19T06:26:15.792Z,15.20
2023-02-19T06:31:09.704Z,14.70
2023-02-19T06:33:36.651Z,17.50
2023-02-19T06:36:03.791Z,11.50
2023-02-19T06:38:30.597Z,20.07
2023-02-19T06:41:01.009Z,12.73
2023-02-19T06:43:27.683Z,13.65
2023-02-19T06:45:54.214Z,18.48
2023-02-19T06:48:20.607Z,16.73
2023-02-19T06:50:46.999Z,15.30
2023-02-19T06:53:13.372Z,15.73
2023-02-19T06:55:40.443Z,15.18
2023-02-19T06:58:07.793Z,15.63
2023-02-19T07:00:34.518Z,17.67
2023-02-19T07:03:01.039Z,16.30
2023-02-19T07:05:27.442Z,12.20
2023-02-19T07:07:53.803Z,13.80
2023-02-19T07:10:20.188Z,17.98
2023-02-19T07:12:46.540Z,12.45
2023-02-19T07:15:12.929Z,16.23
2023-02-19T07:17:39.311Z,18.65
2023-02-19T07:20:05.815Z,17.15
2023-02-19T07:22:32.233Z,11.82
2023-02-19T07:24:58.608Z,14.77
2023-02-19T07:27:24.976Z,14.10
2023-02-19T07:29:51.355Z,17.83
2023-02-19T07:32:17.713Z,11.38
2023-02-19T07:34:44.126Z,12.88
2023-02-19T07:37:10.508Z,14.98
2023-02-19T07:39:36.885Z,13.15
2023-02-19T07:42:03.289Z,12.73
2023-02-19T07:44:29.986Z,12.48
2023-02-19T07:46:56.382Z,22.83
2023-02-19T07:49:22.785Z,13.05
2023-02-19T07:51:49.223Z,15.50
2023-02-19T07:54:15.584Z,14.48
2023-02-19T07:56:42.011Z,13.23
2023-02-19T07:59:08.380Z,20.98
2023-02-19T08:01:53.976Z,11.15
2023-02-19T08:04:20.357Z,13.23
2023-02-19T08:06:46.792Z,15.02
2023-02-19T08:09:13.187Z,12.38
2023-02-19T08:11:58.154Z,15.85
2023-02-19T08:14:25.246Z,11.35
2023-02-19T08:16:52.010Z,11.33
2023-02-19T08:19:18.888Z,13.27
2023-02-19T08:21:45.391Z,13.25
2023-02-19T08:24:11.876Z,16.50
2023-02-19T08:26:38.324Z,21.15
2023-02-19T08:29:05.284Z,16.83
2023-02-19T08:31:32.265Z,14.65
2023-02-19T08:33:58.965Z,14.20
2023-02-19T08:36:25.646Z,10.65
2023-02-19T08:38:52.115Z,11.73
2023-02-19T08:41:18.711Z,9.32
2023-02-19T08:43:45.260Z,9.55
2023-02-19T08:46:12.824Z,9.35
2023-02-19T08:48:39.751Z,8.20
2023-02-19T08:51:08.553Z,9.47
2023-02-19T08:53:36.132Z,8.40
2023-02-19T08:56:06.359Z,12.23
2023-02-19T08:58:33.102Z,10.52
2023-02-19T09:00:59.522Z,8.55
2023-02-19T09:03:26.078Z,7.28
2023-02-19T09:05:52.733Z,9.13
2023-02-19T09:08:19.599Z,7.47
2023-02-19T09:10:46.020Z,8.00
2023-02-19T09:13:12.420Z,9.10
2023-02-19T09:15:38.960Z,9.32
2023-02-19T09:18:05.625Z,10.98
2023-02-19T09:20:31.972Z,10.52
2023-02-19T09:22:59.167Z,9.60
2023-02-19T09:25:26.011Z,11.80
2023-02-19T09:27:55.997Z,13.23
2023-02-19T09:30:22.638Z,10.40
2023-02-19T09:32:49.230Z,21.85
2023-02-19T09:35:15.628Z,11.50
2023-02-19T09:37:42.032Z,11.48
2023-02-19T09:40:09.625Z,9.13
2023-02-19T09:42:36.405Z,13.98
2023-02-19T09:45:04.460Z,12.67
2023-02-19T09:47:32.207Z,9.68
2023-02-19T09:52:27.883Z,9.68
2023-02-19T09:54:57.784Z,8.18
2023-02-19T09:57:25.743Z,11.18
2023-02-19T09:59:54.182Z,8.82
2023-02-19T10:02:25.059Z,10.95
2023-02-19T10:04:52.148Z,8.30
2023-02-19T10:07:35.209Z,9.40
2023-02-19T10:10:14.001Z,7.10
2023-02-19T10:12:43.154Z,10.18
2023-02-19T10:15:11.727Z,9.82
2023-02-19T10:17:38.304Z,8.73
2023-02-19T10:20:05.085Z,11.43
2023-02-19T10:22:33.017Z,10.07
2023-02-19T10:24:59.592Z,10.77
2023-02-19T10:27:31.299Z,7.40
2023-02-19T10:29:58.251Z,9.55
2023-02-19T10:32:26.340Z,7.20
2023-02-19T10:35:07.872Z,6.97
2023-02-19T10:37:34.906Z,9.40
2023-02-19T10:40:01.502Z,8.43
2023-02-19T10:42:27.916Z,7.72
2023-02-19T10:44:58.404Z,7.18
2023-02-19T10:47:26.410Z,7.40
2023-02-19T10:49:55.020Z,4.72
2023-02-19T10:52:26.299Z,4.78
2023-02-19T10:54:55.255Z,4.05
2023-02-19T10:57:30.343Z,3.83
2023-02-19T11:00:01.257Z,3.75
2023-02-19T11:02:28.422Z,3.17
2023-02-19T11:05:06.663Z,4.18
2023-02-19T11:07:33.084Z,5.15
2023-02-19T11:09:59.790Z,4.30
2023-02-19T11:12:28.333Z,4.22
2023-02-19T11:14:55.038Z,4.65
2023-02-19T11:19:51.161Z,2.20
2023-02-19T11:22:27.928Z,5.28
2023-02-19T11:24:57.834Z,3.53
2023-02-19T11:27:25.729Z,4.32
2023-02-19T11:32:26.235Z,3.67
2023-02-19T11:34:53.167Z,2.55
2023-02-19T11:37:23.526Z,4.30
2023-02-19T11:39:50.682Z,27.02
2023-02-19T11:42:17.125Z,7.53
2023-02-19T11:45:02.116Z,11.90
2023-02-19T11:47:28.463Z,11.95
2023-02-19T11:50:00.895Z,15.35
2023-02-19T11:52:38.895Z,10.60
2023-02-19T11:55:24.324Z,5.85
2023-02-19T11:58:17.213Z,10.85
2023-02-19T12:01:07.623Z,4.93
2023-02-19T12:03:40.069Z,4.18
2023-02-19T12:06:18.680Z,1.65
2023-02-19T12:08:51.055Z,1.73
2023-02-19T12:11:37.764Z,3.53
2023-02-19T12:14:07.259Z,3.17
2023-02-19T12:16:42.924Z,3.35
2023-02-19T12:19:09.403Z,4.05
2023-02-19T12:21:50.782Z,5.25
2023-02-19T12:24:35.689Z,5.15
2023-02-19T12:27:25.898Z,4.82
2023-02-19T12:30:12.648Z,3.63
2023-02-19T12:32:57.437Z,5.38
2023-02-19T12:35:42.766Z,4.28
2023-02-19T12:38:23.480Z,4.05
2023-02-19T12:40:52.865Z,3.15
2023-02-19T12:43:20.835Z,4.32
2023-02-19T12:45:54.835Z,2.78
2023-02-19T12:48:39.380Z,1.98
2023-02-19T12:51:12.004Z,2.60
2023-02-19T12:53:50.621Z,1.60
2023-02-19T12:56:36.257Z,4.65
2023-02-19T12:59:10.203Z,2.22
2023-02-19T13:01:43.460Z,3.60
2023-02-19T13:04:28.405Z,4.65
2023-02-19T13:07:14.255Z,4.35
2023-02-19T13:09:58.208Z,3.47
2023-02-19T13:12:26.640Z,4.53
2023-02-19T13:14:58.002Z,5.72
2023-02-19T13:17:27.341Z,5.28
2023-02-19T13:19:58.600Z,4.15
2023-02-19T13:22:49.091Z,3.65
2023-02-19T13:25:16.836Z,3.95
2023-02-19T13:27:43.193Z,4.75
2023-02-19T13:30:09.599Z,4.15
2023-02-19T13:35:26.835Z,4.00
2023-02-19T13:37:54.512Z,3.90
2023-02-19T13:40:37.463Z,3.67
2023-02-19T13:43:19.478Z,2.97
2023-02-19T13:45:46.355Z,4.53
2023-02-19T13:48:26.059Z,4.47
2023-02-19T13:51:11.563Z,3.58
2023-02-19T13:53:41.975Z,3.10
2023-02-19T13:56:27.216Z,3.78
2023-02-19T13:58:53.951Z,4.97
2023-02-19T14:06:13.324Z,4.25
2023-02-19T14:08:55.988Z,4.55
2023-02-19T14:11:40.817Z,4.10
2023-02-19T14:14:26.067Z,2.25
2023-02-19T14:16:56.923Z,5.35
2023-02-19T14:19:43.295Z,2.90
2023-02-19T14:22:30.013Z,4.47
2023-02-19T14:24:57.769Z,3.45
2023-02-19T14:27:25.380Z,3.20
2023-02-19T14:29:52.106Z,3.40
2023-02-19T14:32:20.298Z,3.47
2023-02-19T14:34:46.784Z,3.80
2023-02-19T14:37:18.444Z,2.72
2023-02-19T14:39:45.381Z,3.50
2023-02-19T14:42:17.241Z,2.78
2023-02-19T14:44:46.637Z,4.70
2023-02-19T14:47:17.858Z,3.33
2023-02-19T14:49:46.399Z,3.80
2023-02-19T14:52:17.687Z,2.15
2023-02-19T14:54:48.401Z,2.95
2023-02-19T14:57:17.762Z,2.67
2023-02-19T14:59:55.078Z,2.00
2023-02-19T15:02:21.460Z,3.25
2023-02-19T15:04:48.146Z,2.25
2023-02-19T15:07:17.459Z,1.83
2023-02-19T15:09:47.041Z,3.20
2023-02-19T15:12:19.522Z,3.40
2023-02-19T15:14:46.359Z,2.20
2023-02-19T15:17:16.044Z,3.67
2023-02-19T15:19:43.081Z,1.88
2023-02-19T15:22:14.901Z,1.73
2023-02-19T15:24:44.018Z,2.90
2023-02-19T15:27:20.579Z,2.50
2023-02-19T15:29:53.330Z,2.90
2023-02-19T15:32:22.705Z,2.70
2023-02-19T15:34:56.503Z,2.65
2023-02-19T15:37:24.093Z,2.47
2023-02-19T15:39:51.384Z,2.60
2023-02-19T15:44:48.619Z,2.13
2023-02-19T15:47:18.053Z,3.95
2023-02-19T15:50:01.181Z,3.50
2023-02-19T15:52:32.731Z,2.75
2023-02-19T15:55:13.320Z,2.65
2023-02-19T15:57:44.125Z,1.67
2023-02-19T16:00:17.996Z,3.13
2023-02-19T16:02:45.336Z,3.78
2023-02-19T16:05:17.952Z,5.40
2023-02-19T16:07:44.641Z,3.80
2023-02-19T16:10:16.923Z,4.70
2023-02-19T16:12:43.482Z,5.05
2023-02-19T16:15:20.306Z,5.03
2023-02-19T16:17:47.385Z,5.00
2023-02-19T16:20:25.042Z,6.28
2023-02-19T16:25:26.195Z,4.55
2023-02-19T16:27:53.188Z,3.15
2023-02-19T16:30:30.199Z,3.13
2023-02-19T16:33:35.716Z,3.17
2023-02-19T16:36:21.099Z,3.55
2023-02-19T16:39:05.925Z,5.00
2023-02-19T16:41:32.848Z,4.90
2023-02-19T16:44:01.229Z,2.53
2023-02-19T16:46:27.721Z,2.97
2023-02-19T16:48:54.385Z,2.17
2023-02-19T16:51:28.342Z,3.00
2023-02-19T16:53:55.219Z,3.45
2023-02-19T16:56:23.099Z,5.38
2023-02-19T16:58:50.215Z,4.40
2023-02-19T17:01:16.722Z,5.83
2023-02-19T17:03:44.510Z,4.78
2023-02-19T17:08:38.180Z,4.63
2023-02-19T17:11:06.434Z,4.55
2023-02-19T17:13:32.952Z,4.25
2023-02-19T17:15:59.452Z,3.03
2023-02-19T17:18:25.822Z,8.45
2023-02-19T17:20:58.592Z,8.45
2023-02-19T17:23:25.034Z,5.43
2023-02-19T17:25:51.438Z,4.15
2023-02-19T17:28:17.920Z,7.88
2023-02-19T17:30:44.312Z,5.75
2023-02-19T17:33:10.765Z,9.70
2023-02-19T17:35:37.196Z,16.80
2023-02-19T17:38:09.454Z,31.40
2023-02-19T17:40:36.881Z,46.25
2023-02-19T17:43:03.296Z,46.20
2023-02-19T17:45:29.750Z,44.75
2023-02-19T17:47:56.180Z,24.98
2023-02-19T17:50:24.144Z,10.88
2023-02-19T17:55:18.491Z,5.85
2023-02-19T17:57:45.782Z,10.82
2023-02-19T18:00:19.860Z,12.65
2023-02-19T18:02:46.257Z,10.98
2023-02-19T18:05:12.846Z,12.10
2023-02-19T18:07:39.443Z,9.32
2023-02-19T18:10:06.614Z,6.85
2023-02-19T18:12:32.972Z,7.68
2023-02-19T18:14:59.349Z,6.75
2023-02-19T18:17:25.881Z,7.50
2023-02-19T18:19:52.378Z,8.73
2023-02-19T18:22:18.835Z,5.82
2023-02-19T18:24:46.779Z,8.57
2023-02-19T18:27:13.507Z,6.38
2023-02-19T18:29:39.903Z,3.95
2023-02-19T18:32:06.402Z,5.55
2023-02-19T18:34:32.768Z,3.92
2023-02-19T18:36:59.153Z,5.75
2023-02-19T18:39:25.625Z,8.93
2023-02-19T18:41:52.217Z,8.27
2023-02-19T18:44:22.520Z,6.40
2023-02-19T18:46:49.264Z,5.50
2023-02-19T18:49:16.264Z,7.60
2023-02-19T18:51:44.058Z,6.20
2023-02-19T18:54:10.684Z,7.60
2023-02-19T18:56:41.083Z,7.07
2023-02-19T18:59:07.486Z,4.88
2023-02-19T19:01:33.910Z,3.00
2023-02-19T19:04:00.348Z,3.88
2023-02-19T19:06:27.153Z,4.40
2023-02-19T19:08:53.500Z,3.38
2023-02-19T19:11:20.849Z,2.72
2023-02-19T19:13:47.233Z,3.58
2023-02-19T19:16:13.613Z,1.70
2023-02-19T19:18:39.990Z,2.83
2023-02-19T19:21:06.405Z,2.40
2023-02-19T19:23:32.795Z,3.45
2023-02-19T19:25:59.171Z,3.90
2023-02-19T19:28:25.653Z,4.32
2023-02-19T19:30:52.051Z,3.45
2023-02-19T19:33:18.462Z,1.45
2023-02-19T19:35:44.950Z,4.15
2023-02-19T19:38:11.321Z,0.75
2023-02-19T19:40:37.693Z,1.95
2023-02-19T19:43:04.099Z,1.48
2023-02-19T19:45:30.538Z,1.95
2023-02-19T19:47:56.932Z,0.65
2023-02-19T19:50:23.459Z,2.25
2023-02-19T19:52:50.052Z,1.95
2023-02-19T19:55:16.737Z,1.35
2023-02-19T19:57:43.200Z,1.67
2023-02-19T20:00:12.677Z,2.53
2023-02-19T20:02:39.203Z,2.97
2023-02-19T20:05:06.281Z,2.90
2023-02-19T20:07:32.732Z,3.50
2023-02-19T20:09:59.145Z,1.65
2023-02-19T20:12:25.532Z,1.20
2023-02-19T20:14:51.965Z,1.67
2023-02-19T20:17:18.372Z,0.60
2023-02-19T20:19:45.625Z,1.95
2023-02-19T20:22:12.302Z,1.88
2023-02-19T20:24:38.701Z,2.88
2023-02-19T20:27:05.090Z,1.83
2023-02-19T20:29:32.994Z,3.75
2023-02-19T20:32:03.766Z,6.53
2023-02-19T20:34:31.015Z,2.42
2023-02-19T20:36:57.568Z,3.17
2023-02-19T20:39:28.732Z,4.63
2023-02-19T20:41:55.297Z,5.65
2023-02-19T20:44:21.656Z,5.53
2023-02-19T20:46:49.301Z,4.00
2023-02-19T20:49:16.629Z,4.40
2023-02-19T20:51:47.576Z,4.72
2023-02-19T20:54:14.467Z,6.07
2023-02-19T20:56:45.009Z,9.02
2023-02-19T20:59:11.758Z,6.85
2023-02-19T21:01:38.317Z,6.53
2023-02-19T21:04:04.851Z,4.10
2023-02-19T21:06:31.337Z,5.18
2023-02-19T21:08:57.858Z,4.25
2023-02-19T21:11:24.253Z,7.57
2023-02-19T21:13:50.713Z,5.57
2023-02-19T21:16:17.760Z,4.50
2023-02-19T21:18:44.242Z,5.73
2023-02-19T21:21:10.749Z,3.55
2023-02-19T21:23:37.184Z,10.20
2023-02-19T21:26:04.350Z,4.63
2023-02-19T21:28:30.735Z,6.47
2023-02-19T21:30:57.109Z,11.88
2023-02-19T21:33:23.495Z,6.28
2023-02-19T21:35:49.840Z,5.65
2023-02-19T21:38:16.226Z,6.25
2023-02-19T21:40:42.645Z,6.50
2023-02-19T21:43:09.013Z,5.97
2023-02-19T21:45:35.370Z,7.53
2023-02-19T21:48:01.758Z,8.27
2023-02-19T21:50:28.104Z,9.25
2023-02-19T21:52:55.206Z,7.70
2023-02-19T21:55:21.611Z,8.60
2023-02-19T21:57:47.969Z,8.25
2023-02-19T22:00:14.518Z,3.10
2023-02-19T22:02:42.133Z,3.95
2023-02-19T22:05:08.792Z,6.03
2023-02-19T22:07:35.166Z,5.28
2023-02-19T22:10:01.586Z,5.50
2023-02-19T22:12:28.007Z,7.75
2023-02-19T22:14:54.419Z,6.68
2023-02-19T22:17:20.909Z,4.65
2023-02-19T22:19:47.636Z,6.38
2023-02-19T22:22:14.040Z,7.70
2023-02-19T22:24:40.425Z,6.18
2023-02-19T22:27:06.789Z,6.75
2023-02-19T22:29:33.317Z,5.57
2023-02-19T22:31:59.856Z,6.38
2023-02-19T22:34:26.361Z,5.00
2023-02-19T22:36:52.735Z,8.48
2023-02-19T22:39:23.507Z,5.95
2023-02-19T22:41:50.569Z,8.40
2023-02-19T22:44:17.035Z,6.60
2023-02-19T22:46:48.223Z,7.38
2023-02-19T22:49:14.591Z,9.27
2023-02-19T22:51:46.712Z,7.47
2023-02-19T22:54:13.078Z,7.30
2023-02-19T22:56:39.490Z,9.43
2023-02-19T22:59:05.837Z,7.45
2023-02-19T23:01:32.284Z,7.35
2023-02-19T23:04:00.215Z,5.70
2023-02-19T23:08:53.761Z,4.20
2023-02-19T23:11:21.286Z,2.60
2023-02-19T23:13:47.696Z,5.53
2023-02-19T23:16:14.397Z,3.58
2023-02-19T23:18:41.039Z,2.53
2023-02-19T23:21:07.535Z,9.95
2023-02-19T23:23:33.901Z,7.43
2023-02-19T23:26:00.296Z,10.43
2023-02-19T23:28:26.717Z,5.93
2023-02-19T23:30:53.190Z,5.80
2023-02-19T23:33:19.684Z,6.15
2023-02-19T23:35:46.071Z,6.53
2023-02-19T23:38:12.487Z,7.63
2023-02-19T23:40:38.927Z,8.38
2023-02-19T23:43:05.416Z,8.63
2023-02-19T23:45:31.817Z,7.18
2023-02-19T23:47:58.190Z,8.90
2023-02-19T23:50:24.593Z,6.70
2023-02-19T23:52:51.033Z,4.55
2023-02-19T23:55:17.438Z,6.20
2023-02-19T23:57:43.800Z,10.75
